createdAt,value
2022-09-07T08:30:34.824Z,99.90
2022-09-07T08:33:02.002Z,99.90
2022-09-07T08:35:29.215Z,99.90
2022-09-07T08:37:56.292Z,99.90
2022-09-07T08:40:23.436Z,99.90
2022-09-07T08:43:15.834Z,99.90
2022-09-07T08:45:50.542Z,99.90
2022-09-07T08:48:22.585Z,99.90
2022-09-07T08:51:06.908Z,99.90
2022-09-07T08:53:40.225Z,99.90
2022-09-07T08:56:12.462Z,99.90
2022-09-07T08:58:50.129Z,99.70
2022-09-07T09:01:35.475Z,99.50
2022-09-07T09:04:20.761Z,99.90
2022-09-07T09:07:16.828Z,99.90
2022-09-07T09:10:20.636Z,99.20
2022-09-07T09:13:11.934Z,99.20
2022-09-07T09:16:08.540Z,99.30
2022-09-07T09:19:00.099Z,99.00
2022-09-07T09:21:27.537Z,98.90
2022-09-07T09:24:02.070Z,99.00
2022-09-07T09:26:34.002Z,98.90
2022-09-07T09:29:21.464Z,98.90
2022-09-07T09:31:48.562Z,98.30
2022-09-07T09:34:17.888Z,98.00
2022-09-07T09:36:53.765Z,98.20
2022-09-07T09:39:32.578Z,98.10
2022-09-07T09:42:14.380Z,98.00
2022-09-07T09:44:42.757Z,97.80
2022-09-07T09:47:32.567Z,97.80
2022-09-07T09:50:07.028Z,97.10
2022-09-07T09:52:45.393Z,97.30
2022-09-07T09:55:34.896Z,97.20
2022-09-07T10:03:57.654Z,96.50
2022-09-07T10:06:27.084Z,95.60
2022-09-07T10:08:54.134Z,96.20
2022-09-07T10:14:42.162Z,95.90
2022-09-07T10:17:25.542Z,96.00
2022-09-07T10:19:52.794Z,95.80
2022-09-07T10:22:22.487Z,95.20
2022-09-07T10:24:50.886Z,95.40
2022-09-07T10:27:38.740Z,95.70
2022-09-07T10:30:16.673Z,95.40
2022-09-07T10:33:08.249Z,95.20
2022-09-07T10:35:45.411Z,95.20
2022-09-07T10:38:17.526Z,95.30
2022-09-07T10:40:52.920Z,94.60
2022-09-07T10:43:32.458Z,94.90
2022-09-07T10:49:27.462Z,93.80
2022-09-07T10:52:24.174Z,94.40
2022-09-07T10:54:54.525Z,94.40
2022-09-07T10:57:28.985Z,94.20
2022-09-07T11:00:15.631Z,94.10
2022-09-07T11:06:00.889Z,93.70
2022-09-07T11:12:05.108Z,93.30
2022-09-07T11:14:42.828Z,93.40
2022-09-07T11:17:17.181Z,93.60
2022-09-07T11:19:47.734Z,93.40
2022-09-07T11:22:20.524Z,93.60
2022-09-07T11:25:36.336Z,93.60
2022-09-07T11:28:13.551Z,92.80
2022-09-07T11:30:46.519Z,92.90
2022-09-07T11:33:23.756Z,92.90
2022-09-07T11:35:56.061Z,93.20
2022-09-07T11:38:34.028Z,93.30
2022-09-07T11:41:29.692Z,92.80
2022-09-07T11:44:13.536Z,92.00
2022-09-07T11:46:53.146Z,91.40
2022-09-07T11:49:21.216Z,92.20
2022-09-07T11:51:53.680Z,91.90
2022-09-07T11:54:40.033Z,91.90
2022-09-07T11:57:19.903Z,91.50
2022-09-07T12:00:18.500Z,91.40
2022-09-07T12:03:04.864Z,91.50
2022-09-07T12:05:54.239Z,90.80
2022-09-07T12:08:39.799Z,91.40
2022-09-07T12:11:44.157Z,90.90
2022-09-07T12:14:11.211Z,91.00
2022-09-07T12:17:07.396Z,91.10
2022-09-07T12:19:34.614Z,91.00
2022-09-07T12:22:02.098Z,91.10
2022-09-07T12:24:44.921Z,91.50
2022-09-07T12:27:21.573Z,91.30
2022-09-07T12:29:57.137Z,91.00
2022-09-07T12:32:57.629Z,91.40
2022-09-07T12:35:28.689Z,90.90
2022-09-07T12:38:01.113Z,91.00
2022-09-07T12:40:32.298Z,91.10
2022-09-07T12:43:14.278Z,90.70
2022-09-07T12:45:42.001Z,90.50
2022-09-07T12:48:17.901Z,90.60
2022-09-07T12:50:57.041Z,90.60
2022-09-07T12:53:57.784Z,91.30
2022-09-07T12:59:40.900Z,91.00
2022-09-07T13:02:22.319Z,91.00
2022-09-07T13:04:58.286Z,90.70
2022-09-07T13:08:04.316Z,91.10
2022-09-07T13:10:40.881Z,90.60
2022-09-07T13:14:01.900Z,90.80
2022-09-07T13:16:11.715Z,90.80
2022-09-07T13:18:43.303Z,91.20
2022-09-07T13:21:11.924Z,90.80
2022-09-07T13:23:43.046Z,91.20
2022-09-07T13:26:32.519Z,90.80
2022-09-07T13:29:04.623Z,91.40
2022-09-07T13:31:51.715Z,90.90
2022-09-07T13:35:04.726Z,90.20
2022-09-07T13:37:45.102Z,88.60
2022-09-07T13:40:19.013Z,89.70
2022-09-07T13:42:47.317Z,90.30
2022-09-07T13:45:28.695Z,91.20
2022-09-07T13:48:13.819Z,91.50
2022-09-07T13:50:55.401Z,91.50
2022-09-07T13:53:45.355Z,91.80
2022-09-07T13:56:30.267Z,91.80
2022-09-07T13:58:57.672Z,91.80
2022-09-07T14:01:27.018Z,92.10
2022-09-07T14:04:07.375Z,92.20
2022-09-07T14:06:36.736Z,92.20
2022-09-07T14:09:09.111Z,92.20
2022-09-07T14:11:36.164Z,92.40
2022-09-07T14:14:17.370Z,92.00
2022-09-07T14:16:54.267Z,91.50
2022-09-07T14:19:24.959Z,91.00
2022-09-07T14:21:59.447Z,90.90
2022-09-07T14:24:34.370Z,90.70
2022-09-07T14:27:02.272Z,91.00
2022-09-07T14:29:34.816Z,90.80
2022-09-07T14:32:03.894Z,90.30
2022-09-07T14:34:34.747Z,90.70
2022-09-07T14:37:12.468Z,90.60
2022-09-07T14:39:41.361Z,90.50
2022-09-07T14:42:12.022Z,90.90
2022-09-07T14:44:45.383Z,90.80
2022-09-07T14:47:29.121Z,90.60
2022-09-07T14:50:05.034Z,90.70
2022-09-07T14:52:42.387Z,90.50
2022-09-07T14:55:31.260Z,90.70
2022-09-07T14:58:13.708Z,90.90
2022-09-07T15:00:46.562Z,90.80
2022-09-07T15:03:29.333Z,91.20
2022-09-07T15:06:00.827Z,91.30
2022-09-07T15:08:46.024Z,91.00
2022-09-07T15:14:11.818Z,90.90
2022-09-07T15:16:43.042Z,90.80
2022-09-07T15:19:16.391Z,90.60
2022-09-07T15:21:45.110Z,90.70
2022-09-07T15:24:12.444Z,90.80
2022-09-07T15:29:29.383Z,91.20
2022-09-07T15:32:03.800Z,90.60
2022-09-07T15:34:32.470Z,90.60
2022-09-07T15:37:01.030Z,90.60
2022-09-07T15:39:29.954Z,91.10
2022-09-07T15:41:59.047Z,91.30
2022-09-07T15:44:28.651Z,90.80
2022-09-07T15:49:50.113Z,90.60
2022-09-07T15:52:18.720Z,91.00
2022-09-07T15:54:46.731Z,91.00
2022-09-07T16:00:00.962Z,91.00
2022-09-07T16:05:16.231Z,92.00
2022-09-07T16:10:31.725Z,91.90
2022-09-07T16:13:01.846Z,91.70
2022-09-07T16:15:30.038Z,91.60
2022-09-07T16:17:57.567Z,92.20
2022-09-07T16:20:24.824Z,92.00
2022-09-07T16:25:41.753Z,91.80
2022-09-07T16:28:09.313Z,92.10
2022-09-07T16:30:40.076Z,92.10
2022-09-07T16:33:07.743Z,92.10
2022-09-07T16:35:34.922Z,92.30
2022-09-07T16:40:51.196Z,92.10
2022-09-07T16:43:19.047Z,92.30
2022-09-07T16:48:36.208Z,92.60
2022-09-07T16:51:05.008Z,92.60
2022-09-07T16:53:35.691Z,92.60
2022-09-07T16:56:05.386Z,92.70
2022-09-07T16:58:37.645Z,93.10
2022-09-07T17:01:06.965Z,93.30
2022-09-07T17:03:35.516Z,93.30
2022-09-07T17:06:03.949Z,93.30
2022-09-07T17:08:32.356Z,93.20
2022-09-07T17:11:04.909Z,93.30
2022-09-07T17:13:33.715Z,93.60
2022-09-07T17:16:10.532Z,93.50
2022-09-07T17:21:28.863Z,93.50
2022-09-07T17:23:56.274Z,93.80
2022-09-07T17:26:26.681Z,94.00
2022-09-07T17:28:59.568Z,94.50
2022-09-07T17:34:18.059Z,95.60
2022-09-07T17:36:45.319Z,95.90
2022-09-07T17:39:17.572Z,96.20
2022-09-07T17:41:46.372Z,96.40
2022-09-07T17:44:13.517Z,97.20
2022-09-07T17:46:40.954Z,97.90
2022-09-07T17:49:12.483Z,97.70
2022-09-07T17:51:40.085Z,96.70
2022-09-07T17:54:11.644Z,96.50
2022-09-07T17:56:40.236Z,96.70
2022-09-07T18:01:55.609Z,97.00
2022-09-07T18:04:23.221Z,96.70
2022-09-07T18:06:50.498Z,96.60
2022-09-07T18:09:19.606Z,96.60
2022-09-07T18:11:48.741Z,96.80
2022-09-07T18:14:17.332Z,96.70
2022-09-07T18:16:46.064Z,96.50
2022-09-07T18:19:13.917Z,96.40
2022-09-07T18:21:42.821Z,96.60
2022-09-07T18:24:16.855Z,96.50
2022-09-07T18:26:50.174Z,96.80
2022-09-07T18:29:31.322Z,96.80
2022-09-07T18:32:02.638Z,96.70
2022-09-07T18:34:31.776Z,96.80
2022-09-07T18:36:59.922Z,96.90
2022-09-07T18:39:27.519Z,96.80
2022-09-07T18:41:55.475Z,97.00
2022-09-07T18:47:21.721Z,97.40
2022-09-07T18:49:51.607Z,97.30
2022-09-07T18:55:08.618Z,97.80
2022-09-07T18:57:36.557Z,97.40
2022-09-07T19:00:06.744Z,97.30
2022-09-07T19:02:33.990Z,97.30
2022-09-07T19:07:48.722Z,97.80
2022-09-07T19:10:16.928Z,97.90
2022-09-07T19:12:46.128Z,97.90
2022-09-07T19:15:14.042Z,98.10
2022-09-07T19:17:41.259Z,98.10
2022-09-07T19:20:09.128Z,98.10
2022-09-07T19:22:36.239Z,98.20
2022-09-07T19:25:03.787Z,98.10
2022-09-07T19:27:33.035Z,97.80
2022-09-07T19:30:00.263Z,97.90
2022-09-07T19:32:27.518Z,97.90
2022-09-07T19:34:55.447Z,97.90
2022-09-07T19:37:25.510Z,98.10
2022-09-07T19:39:56.051Z,98.20
2022-09-07T19:42:24.164Z,98.30
2022-09-07T19:44:52.084Z,98.50
2022-09-07T19:47:19.616Z,98.40
2022-09-07T19:49:47.002Z,98.40
2022-09-07T19:52:14.151Z,98.70
2022-09-07T19:54:41.223Z,98.60
2022-09-07T19:57:08.552Z,98.70
2022-09-07T19:59:35.755Z,98.90
2022-09-07T20:02:03.010Z,98.90
2022-09-07T20:04:30.273Z,98.70
2022-09-07T20:06:57.638Z,98.10
2022-09-07T20:09:25.805Z,97.90
2022-09-07T20:11:53.148Z,97.40
2022-09-07T20:14:20.379Z,97.20
2022-09-07T20:16:48.005Z,97.40
2022-09-07T20:19:15.373Z,97.10
2022-09-07T20:21:43.252Z,96.90
2022-09-07T20:24:14.606Z,97.30
2022-09-07T20:26:41.922Z,97.40
2022-09-07T20:31:58.301Z,97.50
2022-09-07T20:34:26.978Z,97.90
2022-09-07T20:36:54.854Z,97.90
2022-09-07T20:39:22.235Z,98.00
2022-09-07T20:41:49.695Z,98.20
2022-09-07T20:44:17.179Z,98.30
2022-09-07T20:46:44.612Z,98.30
2022-09-07T20:49:11.865Z,98.20
2022-09-07T20:51:39.094Z,98.20
2022-09-07T20:54:07.213Z,98.20
2022-09-07T20:56:34.546Z,98.30
2022-09-07T20:59:03.594Z,98.50
2022-09-07T21:01:32.977Z,98.80
2022-09-07T21:04:01.083Z,98.80
2022-09-07T21:06:30.881Z,98.80
2022-09-07T21:08:59.684Z,98.90
2022-09-07T21:11:32.524Z,98.90
2022-09-07T21:14:01.507Z,99.20
2022-09-07T21:16:29.393Z,99.10
2022-09-07T21:18:59.428Z,99.00
2022-09-07T21:21:28.367Z,99.10
2022-09-07T21:23:57.187Z,99.10
2022-09-07T21:26:24.951Z,99.20
2022-09-07T21:29:00.737Z,99.40
2022-09-07T21:31:29.742Z,99.40
2022-09-07T21:33:58.744Z,99.40
2022-09-07T21:36:26.529Z,99.60
2022-09-07T21:38:54.526Z,99.60
2022-09-07T21:41:23.618Z,99.50
2022-09-07T21:43:59.123Z,99.50
2022-09-07T21:46:27.832Z,99.80
2022-09-07T21:48:56.434Z,99.70
2022-09-07T21:51:24.639Z,99.80
2022-09-07T21:53:53.106Z,99.90
2022-09-07T21:56:20.789Z,99.90
2022-09-07T21:58:48.390Z,99.80
2022-09-07T22:01:19.182Z,99.80
2022-09-07T22:03:48.254Z,99.80
2022-09-07T22:06:15.591Z,99.80
2022-09-07T22:08:43.231Z,99.90
2022-09-07T22:11:18.485Z,99.90
2022-09-07T22:13:45.961Z,99.90
2022-09-07T22:16:14.773Z,99.90
2022-09-07T22:18:46.227Z,99.90
2022-09-07T22:21:22.632Z,99.90
2022-09-07T22:23:52.398Z,99.90
2022-09-07T22:26:22.233Z,99.90
2022-09-07T22:28:49.907Z,99.90
2022-09-07T22:31:23.057Z,99.90
2022-09-07T22:33:51.686Z,99.90
2022-09-07T22:36:33.622Z,99.90
2022-09-07T22:39:03.502Z,99.90
2022-09-07T22:41:33.890Z,99.90
2022-09-07T22:44:01.347Z,99.90
2022-09-07T22:46:30.992Z,99.90
2022-09-07T22:48:59.193Z,99.90
2022-09-07T22:51:27.122Z,99.90
2022-09-07T22:53:55.756Z,99.90
2022-09-07T22:56:29.387Z,99.90
2022-09-07T22:58:59.515Z,99.90
2022-09-07T23:01:28.518Z,99.90
2022-09-07T23:03:56.407Z,99.90
2022-09-07T23:06:33.314Z,99.90
2022-09-07T23:09:04.286Z,99.90
2022-09-07T23:11:31.646Z,99.90
2022-09-07T23:14:02.538Z,99.90
2022-09-07T23:16:30.251Z,99.90
2022-09-07T23:18:58.498Z,99.90
2022-09-07T23:21:27.223Z,99.90
2022-09-07T23:23:56.944Z,99.90
2022-09-07T23:26:26.112Z,99.90
2022-09-07T23:29:04.476Z,99.90
2022-09-07T23:31:34.366Z,99.90
2022-09-07T23:34:02.035Z,99.90
2022-09-07T23:36:29.336Z,99.90
2022-09-07T23:38:57.863Z,99.90
2022-09-07T23:41:26.384Z,99.90
2022-09-07T23:43:54.730Z,99.90
2022-09-07T23:46:22.329Z,99.90
2022-09-07T23:48:49.778Z,99.90
2022-09-07T23:51:22.786Z,99.90
2022-09-07T23:53:51.847Z,99.90
2022-09-07T23:56:19.512Z,99.90
2022-09-07T23:58:46.733Z,99.90
